Time;durP1;ratioP1;P1;durP2;ratioP2;P2;SDS_P1;SDS_P2;PMS_P1;PMS_P2;Temp;Humidity;BMP_temperature;BMP_pressure;BME280_temperature;BME280_humidity;BME280_pressure;Samples;Min_cycle;Max_cycle;Signal;HPM_P1;HPM_P2
2022/05/08 00:00:37;;;;;;;10.87;10.57;;;12.60;99.90;;;;;;5080156;28;20245;-79
2022/05/08 00:03:06;;;;;;;10.80;10.50;;;12.50;99.90;;;;;;5079561;28;20226;-78
2022/05/08 00:05:34;;;;;;;10.90;10.60;;;12.50;99.90;;;;;;5080872;28;20336;-78
2022/05/08 00:08:02;;;;;;;11.50;11.10;;;12.40;99.90;;;;;;5093808;28;20230;-78
2022/05/08 00:10:29;;;;;;;10.80;10.50;;;12.40;99.90;;;;;;5086078;28;20226;-79
2022/05/08 00:12:57;;;;;;;11.00;10.70;;;12.40;99.90;;;;;;5081914;28;20225;-79
2022/05/08 00:15:25;;;;;;;11.03;10.73;;;12.30;99.90;;;;;;5080716;28;20238;-79
2022/05/08 00:17:53;;;;;;;10.97;10.67;;;12.30;99.90;;;;;;5080759;28;20241;-79
2022/05/08 00:20:22;;;;;;;10.87;10.57;;;12.20;99.90;;;;;;5081559;28;20214;-79
2022/05/08 00:22:50;;;;;;;11.00;10.70;;;12.20;99.90;;;;;;5085306;28;20234;-79
2022/05/08 00:25:17;;;;;;;10.90;10.60;;;12.10;99.90;;;;;;5080634;28;20238;-79
2022/05/08 00:27:45;;;;;;;11.10;10.80;;;12.10;99.90;;;;;;5080184;28;20242;-79
2022/05/08 00:30:14;;;;;;;11.20;10.90;;;12.10;99.90;;;;;;5080051;28;20230;-79
2022/05/08 00:32:42;;;;;;;10.97;10.67;;;12.10;99.90;;;;;;5080477;28;20234;-79
2022/05/08 00:35:11;;;;;;;11.00;10.70;;;12.10;99.90;;;;;;5080372;28;20253;-79
2022/05/08 00:37:40;;;;;;;11.00;10.70;;;12.00;99.90;;;;;;5079759;28;20787;-79
2022/05/08 00:40:09;;;;;;;11.00;10.70;;;12.00;99.90;;;;;;5079768;28;20222;-79
2022/05/08 00:42:36;;;;;;;10.73;10.43;;;11.90;99.90;;;;;;5080006;28;20230;-80
2022/05/08 00:45:06;;;;;;;10.93;10.63;;;11.90;99.90;;;;;;5079501;28;20252;-79
2022/05/08 00:47:33;;;;;;;10.80;10.50;;;11.90;99.90;;;;;;5079847;28;20234;-79
2022/05/08 00:50:01;;;;;;;11.00;10.70;;;11.80;99.90;;;;;;5079843;28;20225;-79
2022/05/08 00:52:30;;;;;;;10.77;10.47;;;11.80;99.90;;;;;;5079685;28;20233;-79
2022/05/08 00:54:59;;;;;;;10.87;10.57;;;11.70;99.90;;;;;;5079792;28;20230;-79
2022/05/08 00:57:28;;;;;;;11.10;10.80;;;11.70;99.90;;;;;;5079131;28;20238;-79
2022/05/08 00:59:56;;;;;;;11.07;10.77;;;11.60;99.90;;;;;;5079491;28;20284;-79
2022/05/08 01:02:24;;;;;;;11.00;10.70;;;11.60;99.90;;;;;;5078973;28;20288;-79
2022/05/08 01:04:52;;;;;;;10.83;10.53;;;11.60;99.90;;;;;;5079609;28;20238;-79
2022/05/08 01:07:21;;;;;;;10.93;10.63;;;11.50;99.90;;;;;;5078805;28;20256;-79
2022/05/08 01:09:50;;;;;;;11.00;10.70;;;11.50;99.90;;;;;;5078524;28;20266;-79
2022/05/08 01:12:19;;;;;;;10.80;10.50;;;11.50;99.90;;;;;;5079031;28;20238;-79
2022/05/08 01:14:47;;;;;;;10.97;10.67;;;11.50;99.90;;;;;;5078785;28;20233;-78
2022/05/08 01:17:16;;;;;;;11.30;10.90;;;11.40;99.90;;;;;;5079039;28;20242;-80
2022/05/08 01:19:44;;;;;;;11.17;10.77;;;11.40;99.90;;;;;;5079190;28;20214;-79
2022/05/08 01:22:13;;;;;;;11.00;10.70;;;11.30;99.90;;;;;;5079612;28;20244;-79
2022/05/08 01:24:41;;;;;;;11.00;10.70;;;11.30;99.90;;;;;;5079300;28;20325;-79
2022/05/08 01:27:08;;;;;;;11.37;10.97;;;11.30;99.90;;;;;;5079064;28;20226;-79
2022/05/08 01:29:36;;;;;;;10.87;10.57;;;11.20;99.90;;;;;;5078959;28;20238;-80
2022/05/08 01:32:05;;;;;;;10.90;10.60;;;11.20;99.90;;;;;;5079475;28;20238;-79
2022/05/08 01:34:33;;;;;;;11.23;10.83;;;11.20;99.90;;;;;;5078712;28;20226;-80
2022/05/08 01:37:01;;;;;;;11.17;10.77;;;11.10;99.90;;;;;;5078737;28;20230;-80
2022/05/08 01:39:30;;;;;;;10.87;10.57;;;11.10;99.90;;;;;;5079225;28;20260;-80
2022/05/08 01:41:58;;;;;;;10.90;10.60;;;11.00;99.90;;;;;;5079439;28;20237;-80
2022/05/08 01:44:26;;;;;;;11.10;10.70;;;11.00;99.90;;;;;;5078963;28;20268;-80
2022/05/08 01:48:21;;;;;;;11.20;10.80;;;11.00;99.90;;;;;;5078415;28;20219;-80
2022/05/08 01:49:41;;;;;;;10.70;10.40;;;11.00;99.90;;;;;;5077585;28;20256;-80
2022/05/08 01:52:09;;;;;;;10.83;10.53;;;10.90;99.90;;;;;;5078448;28;20242;-80
2022/05/08 01:54:38;;;;;;;10.90;10.60;;;10.90;99.90;;;;;;5078643;28;20288;-79
2022/05/08 01:57:07;;;;;;;10.93;10.60;;;10.90;99.90;;;;;;5078712;28;20238;-79
2022/05/08 01:59:34;;;;;;;10.80;10.50;;;10.80;99.90;;;;;;5078704;28;20226;-79
2022/05/08 02:02:02;;;;;;;11.27;10.87;;;10.80;99.90;;;;;;5078974;28;20230;-80
2022/05/08 02:04:30;;;;;;;11.30;10.90;;;10.70;99.90;;;;;;5078628;28;20729;-79
2022/05/08 02:06:58;;;;;;;11.30;10.90;;;10.70;99.90;;;;;;5077930;28;20245;-80
2022/05/08 02:09:26;;;;;;;11.30;10.90;;;10.70;99.90;;;;;;5078565;28;20230;-80
2022/05/08 02:11:55;;;;;;;11.40;11.00;;;10.70;99.90;;;;;;5079655;28;20238;-80
2022/05/08 02:14:23;;;;;;;11.50;11.10;;;10.70;99.90;;;;;;5092082;28;20214;-79
2022/05/08 02:16:51;;;;;;;11.13;10.73;;;10.60;99.90;;;;;;5097012;28;20214;-79
2022/05/08 02:19:18;;;;;;;11.20;10.80;;;10.60;99.90;;;;;;5096873;28;20215;-78
2022/05/08 02:21:46;;;;;;;11.40;11.00;;;10.50;99.90;;;;;;5096830;28;20218;-78
2022/05/08 02:24:14;;;;;;;11.20;10.80;;;10.40;99.90;;;;;;5100256;28;20238;-78
2022/05/08 02:26:41;;;;;;;11.50;11.10;;;10.40;99.90;;;;;;5099912;28;20214;-79
2022/05/08 02:29:11;;;;;;;11.20;10.80;;;10.30;99.90;;;;;;5100980;28;20233;-78
2022/05/08 02:31:38;;;;;;;11.10;10.70;;;10.30;99.90;;;;;;5099570;28;20230;-78
2022/05/08 02:34:06;;;;;;;11.30;10.90;;;10.30;99.90;;;;;;5099926;28;20265;-78
2022/05/08 02:36:34;;;;;;;11.30;10.90;;;10.20;99.90;;;;;;5098196;28;20234;-79
2022/05/08 02:39:01;;;;;;;11.17;10.77;;;10.20;99.90;;;;;;5098669;28;20236;-78
2022/05/08 02:41:29;;;;;;;11.20;10.80;;;10.20;99.90;;;;;;5098853;28;20253;-79
2022/05/08 02:43:57;;;;;;;11.50;11.10;;;10.10;99.90;;;;;;5099628;28;20257;-78
2022/05/08 02:46:26;;;;;;;11.60;11.20;;;10.10;99.90;;;;;;5097717;28;20222;-78
2022/05/08 02:48:53;;;;;;;11.27;10.87;;;10.10;99.90;;;;;;5086573;28;20275;-80
2022/05/08 02:51:21;;;;;;;11.17;10.77;;;10.00;99.90;;;;;;5084961;28;20234;-79
2022/05/08 02:53:49;;;;;;;11.40;11.00;;;10.00;99.90;;;;;;5085115;28;20233;-79
2022/05/08 02:59:01;;;;;;;11.27;10.87;;;9.90;99.90;;;;;;5084637;28;20202;-80
2022/05/08 03:01:30;;;;;;;11.40;11.00;;;9.90;99.90;;;;;;5083733;28;20234;-79
2022/05/08 03:03:58;;;;;;;11.40;11.00;;;9.80;99.90;;;;;;5083126;28;20238;-79
2022/05/08 03:06:26;;;;;;;11.47;11.07;;;9.80;99.90;;;;;;5082337;28;20292;-79
2022/05/08 03:08:54;;;;;;;11.17;10.77;;;9.70;99.90;;;;;;5083482;28;20261;-80
2022/05/08 03:11:28;;;;;;;11.50;11.10;;;9.70;99.90;;;;;;5082887;28;20291;-79
2022/05/08 03:13:57;;;;;;;11.50;11.10;;;9.70;99.90;;;;;;5082757;28;20226;-80
2022/05/08 03:16:28;;;;;;;11.60;11.20;;;9.70;99.90;;;;;;5082608;28;20226;-80
2022/05/08 03:18:57;;;;;;;11.60;11.20;;;9.60;99.90;;;;;;5082322;28;20219;-78
2022/05/08 03:21:26;;;;;;;11.63;11.23;;;9.60;99.90;;;;;;5082720;28;20230;-79
2022/05/08 03:23:54;;;;;;;11.73;11.33;;;9.50;99.90;;;;;;5081629;28;20226;-80
2022/05/08 03:26:24;;;;;;;11.70;11.30;;;9.50;99.90;;;;;;5083107;28;20222;-81
2022/05/08 03:28:52;;;;;;;11.50;11.10;;;9.50;99.90;;;;;;5084237;28;20240;-79
2022/05/08 03:31:20;;;;;;;11.60;11.20;;;9.50;99.90;;;;;;5083758;28;20242;-79
2022/05/08 03:33:48;;;;;;;11.60;11.20;;;9.50;99.90;;;;;;5082329;28;20256;-79
2022/05/08 03:36:17;;;;;;;11.50;11.10;;;9.50;99.90;;;;;;5081011;28;20259;-80
2022/05/08 03:38:47;;;;;;;11.77;11.37;;;9.50;99.90;;;;;;5079863;28;20284;-79
2022/05/08 03:41:16;;;;;;;11.60;11.20;;;9.50;99.90;;;;;;5079765;28;20793;-79
2022/05/08 03:43:44;;;;;;;11.60;11.20;;;9.50;99.90;;;;;;5079996;28;20236;-79
2022/05/08 03:46:13;;;;;;;11.63;11.23;;;9.50;99.90;;;;;;5080186;28;20728;-80
2022/05/08 03:48:41;;;;;;;11.27;10.87;;;9.50;99.90;;;;;;5080134;28;20226;-79
2022/05/08 03:51:09;;;;;;;11.60;11.20;;;9.50;99.90;;;;;;5080946;28;20248;-80
2022/05/08 03:53:38;;;;;;;11.60;11.20;;;9.50;99.90;;;;;;5080372;28;20244;-79
2022/05/08 03:56:08;;;;;;;11.60;11.20;;;9.50;99.90;;;;;;5080077;28;20231;-79
2022/05/08 03:58:36;;;;;;;11.70;11.30;;;9.50;99.90;;;;;;5080966;28;20278;-79
2022/05/08 04:01:03;;;;;;;11.60;11.20;;;9.40;99.90;;;;;;5082339;28;20256;-79
2022/05/08 04:03:31;;;;;;;11.60;11.20;;;9.40;99.90;;;;;;5082403;28;20284;-80
2022/05/08 04:05:59;;;;;;;11.90;11.50;;;9.40;99.90;;;;;;5081971;28;20288;-80
2022/05/08 04:08:26;;;;;;;11.70;11.30;;;9.40;99.90;;;;;;5081882;28;20234;-79
2022/05/08 04:10:57;;;;;;;11.60;11.20;;;9.40;99.90;;;;;;5082057;28;20238;-79
2022/05/08 04:13:24;;;;;;;11.70;11.30;;;9.40;99.90;;;;;;5081925;28;20328;-79
2022/05/08 04:18:37;;;;;;;11.73;11.33;;;9.50;99.90;;;;;;5082023;28;20222;-80
2022/05/08 04:21:05;;;;;;;11.83;11.43;;;9.50;99.90;;;;;;5082138;28;20230;-79
2022/05/08 04:26:19;;;;;;;11.73;11.33;;;9.60;99.90;;;;;;5081174;28;20217;-80
2022/05/08 04:28:47;;;;;;;11.70;11.30;;;9.60;99.90;;;;;;5080564;28;20218;-79
2022/05/08 04:31:14;;;;;;;11.60;11.20;;;9.70;99.90;;;;;;5081514;28;20226;-78
2022/05/08 04:33:44;;;;;;;11.27;10.87;;;9.70;99.90;;;;;;5081611;28;20230;-80
2022/05/08 04:36:12;;;;;;;11.40;11.00;;;9.70;99.90;;;;;;5083337;28;20238;-80
2022/05/08 04:38:40;;;;;;;11.60;11.20;;;9.80;99.90;;;;;;5083436;28;20285;-79
2022/05/08 04:41:08;;;;;;;11.40;11.00;;;9.80;99.90;;;;;;5082583;28;20261;-79
2022/05/08 04:43:37;;;;;;;11.40;11.00;;;9.90;99.90;;;;;;5081318;28;20284;-80
2022/05/08 04:46:05;;;;;;;11.50;11.10;;;9.90;99.90;;;;;;5081638;28;20308;-79
2022/05/08 04:48:32;;;;;;;11.63;11.23;;;10.00;99.90;;;;;;5081506;28;20223;-80
2022/05/08 04:51:00;;;;;;;11.23;10.83;;;10.00;99.90;;;;;;5082528;28;20245;-79
2022/05/08 04:53:29;;;;;;;11.50;11.10;;;10.10;99.90;;;;;;5080997;28;20241;-79
2022/05/08 04:55:56;;;;;;;11.33;10.93;;;10.10;99.90;;;;;;5080888;28;20337;-80
2022/05/08 04:58:28;;;;;;;11.47;11.07;;;10.20;99.90;;;;;;5081665;28;20214;-79
2022/05/08 05:00:58;;;;;;;11.03;10.63;;;10.20;99.90;;;;;;5081756;28;20234;-80
2022/05/08 05:03:26;;;;;;;11.30;10.90;;;10.20;99.90;;;;;;5082276;28;20249;-79
2022/05/08 05:05:53;;;;;;;11.50;11.10;;;10.30;99.90;;;;;;5081514;28;20249;-79
2022/05/08 05:08:21;;;;;;;11.40;11.00;;;10.40;99.90;;;;;;5109712;22;20224;-76
2022/05/08 05:10:49;;;;;;;11.23;10.90;;;10.40;99.90;;;;;;5119571;28;20288;-77
2022/05/08 05:13:17;;;;;;;11.60;11.20;;;10.50;99.90;;;;;;5124870;28;20237;-77
2022/05/08 05:15:44;;;;;;;11.23;10.93;;;10.50;99.90;;;;;;5100581;28;20225;-78
2022/05/08 05:18:16;;;;;;;11.50;11.10;;;10.40;99.90;;;;;;5102107;28;20222;-77
2022/05/08 05:20:45;;;;;;;11.50;11.10;;;10.40;99.90;;;;;;5120496;28;20233;-77
2022/05/08 05:23:13;;;;;;;11.83;11.43;;;10.50;99.90;;;;;;5119824;28;20225;-77
2022/05/08 05:25:41;;;;;;;11.10;10.80;;;10.50;99.90;;;;;;5119246;28;20251;-78
2022/05/08 05:28:11;;;;;;;11.10;10.80;;;10.60;99.90;;;;;;5119143;28;20225;-77
2022/05/08 05:30:40;;;;;;;11.33;11.03;;;10.70;99.90;;;;;;5119489;28;20221;-77
2022/05/08 05:33:15;;;;;;;11.33;11.03;;;10.80;99.90;;;;;;5119073;28;20382;-77
2022/05/08 05:35:45;;;;;;;11.30;11.00;;;11.00;99.90;;;;;;5118794;28;20232;-78
2022/05/08 05:38:13;;;;;;;10.87;10.57;;;11.10;99.90;;;;;;5118360;28;20233;-77
2022/05/08 05:40:41;;;;;;;10.80;10.50;;;11.20;99.90;;;;;;5118795;28;20290;-78
2022/05/08 05:43:09;;;;;;;10.97;10.67;;;11.30;99.90;;;;;;5119652;28;20225;-78
2022/05/08 05:45:38;;;;;;;10.87;10.57;;;11.30;99.90;;;;;;5119903;28;20364;-77
2022/05/08 05:48:06;;;;;;;10.60;10.30;;;11.40;99.90;;;;;;5120203;28;20240;-78
2022/05/08 05:50:35;;;;;;;10.70;10.40;;;11.60;99.90;;;;;;5119911;28;20316;-77
2022/05/08 05:53:04;;;;;;;10.90;10.60;;;11.80;99.90;;;;;;5119824;28;20260;-77
2022/05/08 05:55:33;;;;;;;10.70;10.40;;;11.90;99.90;;;;;;5120078;27;20298;-78
2022/05/08 05:58:00;;;;;;;10.77;10.47;;;12.10;99.90;;;;;;5122617;28;20286;-77
2022/05/08 06:00:28;;;;;;;10.40;10.10;;;12.20;99.90;;;;;;5123583;28;20292;-79
2022/05/08 06:02:56;;;;;;;10.60;10.30;;;12.30;99.90;;;;;;5123946;28;20237;-78
2022/05/08 06:05:26;;;;;;;10.20;9.90;;;12.40;99.90;;;;;;5123349;28;20290;-79
2022/05/08 06:07:55;;;;;;;10.23;9.93;;;12.50;99.90;;;;;;5123070;28;20229;-79
2022/05/08 06:10:27;;;;;;;10.37;10.07;;;12.70;99.90;;;;;;5122765;28;20239;-78
2022/05/08 06:12:55;;;;;;;10.33;10.03;;;12.70;99.90;;;;;;5123216;28;20229;-78
2022/05/08 06:15:24;;;;;;;10.00;9.70;;;12.80;99.90;;;;;;5122922;28;20225;-79
2022/05/08 06:17:53;;;;;;;10.20;9.90;;;12.90;99.90;;;;;;5123185;28;20219;-78
2022/05/08 06:20:24;;;;;;;10.30;10.00;;;13.00;99.90;;;;;;5123284;28;20228;-78
2022/05/08 06:22:52;;;;;;;10.23;9.93;;;13.10;99.90;;;;;;5123327;28;20232;-79
2022/05/08 06:25:19;;;;;;;10.60;10.30;;;13.20;99.90;;;;;;5122970;28;20286;-78
2022/05/08 06:27:48;;;;;;;10.70;10.40;;;13.30;99.90;;;;;;5122332;27;20481;-77
2022/05/08 06:30:16;;;;;;;10.60;10.30;;;13.40;99.90;;;;;;5126686;28;20342;-76
2022/05/08 06:32:43;;;;;;;10.50;10.20;;;13.60;99.90;;;;;;5132472;28;20259;-77
2022/05/08 06:35:11;;;;;;;10.30;10.00;;;13.70;99.90;;;;;;5130746;28;20310;-77
2022/05/08 06:37:39;;;;;;;10.40;10.10;;;13.80;99.90;;;;;;5128933;28;20346;-77
2022/05/08 06:40:10;;;;;;;10.27;9.97;;;13.90;99.90;;;;;;5126814;28;20332;-78
2022/05/08 06:42:38;;;;;;;10.37;10.07;;;13.90;99.90;;;;;;5126170;28;20286;-77
2022/05/08 06:45:09;;;;;;;10.70;10.40;;;14.10;99.90;;;;;;5125145;28;20217;-77
2022/05/08 06:47:37;;;;;;;10.50;10.20;;;14.30;99.90;;;;;;5123167;27;20274;-78
2022/05/08 06:50:08;;;;;;;10.50;10.20;;;14.50;99.90;;;;;;5123728;28;20286;-78
2022/05/08 06:52:36;;;;;;;10.45;10.15;;;14.70;99.90;;;;;;5123545;28;20282;-79
2022/05/08 06:55:05;;;;;;;10.63;10.32;;;14.70;99.90;;;;;;5123391;28;20231;-78
2022/05/08 06:57:35;;;;;;;10.63;10.32;;;14.70;99.90;;;;;;5123280;27;20255;-78
2022/05/08 07:02:54;;;;;;;10.20;9.90;;;14.70;99.90;;;;;;5123264;28;20204;-77
2022/05/08 07:05:22;;;;;;;10.20;9.90;;;14.80;99.90;;;;;;5123003;28;20251;-78
2022/05/08 07:07:50;;;;;;;10.15;9.85;;;14.90;99.90;;;;;;5121071;27;20266;-78
2022/05/08 07:10:20;;;;;;;10.20;9.90;;;15.00;99.90;;;;;;5122792;28;20237;-79
2022/05/08 07:12:49;;;;;;;10.20;9.90;;;15.20;99.90;;;;;;5122981;28;20282;-78
2022/05/08 07:15:19;;;;;;;10.57;10.27;;;15.30;99.90;;;;;;5122723;28;20228;-78
2022/05/08 07:17:50;;;;;;;10.32;10.02;;;15.40;99.90;;;;;;5122799;28;20237;-78
2022/05/08 07:20:18;;;;;;;10.48;10.18;;;15.60;99.90;;;;;;5123988;28;20266;-78
2022/05/08 07:22:48;;;;;;;10.77;10.48;;;15.60;99.90;;;;;;5123397;28;20229;-78
2022/05/08 07:25:16;;;;;;;10.50;10.20;;;15.70;99.90;;;;;;5122520;28;20229;-78
2022/05/08 07:27:46;;;;;;;10.70;10.40;;;15.60;99.90;;;;;;5122460;28;20228;-78
2022/05/08 07:30:15;;;;;;;10.63;10.32;;;15.60;99.90;;;;;;5122527;28;20257;-78
2022/05/08 07:32:46;;;;;;;10.50;10.20;;;15.70;99.90;;;;;;5122226;28;20233;-78
2022/05/08 07:41:00;;;;;;;10.50;10.20;;;16.20;99.90;;;;;;5094536;27;20234;-80
2022/05/08 07:43:28;;;;;;;10.50;10.20;;;16.40;99.90;;;;;;5086085;28;20226;-82
2022/05/08 07:45:58;;;;;;;10.60;10.30;;;16.50;99.90;;;;;;5083123;28;20237;-82
2022/05/08 07:48:27;;;;;;;10.60;10.30;;;16.70;99.90;;;;;;5082796;28;20218;-83
2022/05/08 07:53:43;;;;;;;10.52;10.23;;;17.10;99.90;;;;;;5082183;28;20256;-83
2022/05/08 07:56:13;;;;;;;10.65;10.35;;;17.30;99.90;;;;;;5082307;28;20292;-81
2022/05/08 07:58:42;;;;;;;10.15;9.85;;;17.40;99.90;;;;;;5082054;28;20222;-80
2022/05/08 08:01:11;;;;;;;10.30;10.00;;;17.40;99.90;;;;;;5083087;28;20230;-81
2022/05/08 08:03:41;;;;;;;10.30;10.00;;;17.60;99.90;;;;;;5082008;28;20234;-80
2022/05/08 08:06:13;;;;;;;10.50;10.20;;;17.60;99.90;;;;;;5081703;28;20215;-80
2022/05/08 08:08:41;;;;;;;10.50;10.20;;;17.60;99.90;;;;;;5082427;28;20332;-80
2022/05/08 08:11:11;;;;;;;10.55;10.25;;;17.60;99.90;;;;;;5082593;28;20253;-80
2022/05/08 08:13:39;;;;;;;10.43;10.13;;;17.60;99.90;;;;;;5082697;28;20272;-80
2022/05/08 08:16:09;;;;;;;10.30;10.00;;;17.80;99.90;;;;;;5082279;28;20253;-80
2022/05/08 08:18:38;;;;;;;10.40;10.10;;;17.90;99.90;;;;;;5082397;28;20748;-81
2022/05/08 08:21:09;;;;;;;10.20;9.90;;;18.10;99.90;;;;;;5082330;28;20230;-80
2022/05/08 08:23:45;;;;;;;10.38;10.07;;;18.20;99.90;;;;;;5082308;28;20238;-80
2022/05/08 08:26:15;;;;;;;10.30;10.00;;;18.30;99.90;;;;;;5086128;28;20230;-80
2022/05/08 08:28:52;;;;;;;10.40;10.10;;;18.40;99.90;;;;;;5095412;28;20273;-80
2022/05/08 08:31:23;;;;;;;10.18;9.88;;;18.50;99.90;;;;;;5094210;28;20229;-80
2022/05/08 08:33:52;;;;;;;10.18;9.88;;;18.80;99.90;;;;;;5083226;28;20238;-77
2022/05/08 08:36:21;;;;;;;10.43;10.13;;;19.00;99.90;;;;;;5078020;28;20230;-77
2022/05/08 08:38:54;;;;;;;10.35;10.05;;;19.20;99.90;;;;;;5084192;28;20230;-77
2022/05/08 08:41:30;;;;;;;10.27;9.98;;;19.50;99.90;;;;;;5081700;28;20333;-77
2022/05/08 08:49:51;;;;;;;10.60;10.30;;;20.30;99.90;;;;;;5082699;28;20228;-78
2022/05/08 08:52:22;;;;;;;10.23;9.93;;;20.70;99.90;;;;;;5082013;28;20230;-77
2022/05/08 08:54:52;;;;;;;10.38;10.07;;;21.00;99.90;;;;;;5078074;28;20248;-76
2022/05/08 08:57:20;;;;;;;10.50;10.20;;;21.00;99.90;;;;;;5077487;28;20245;-76
2022/05/08 08:59:48;;;;;;;10.40;10.10;;;21.00;99.90;;;;;;5078398;28;20272;-79
2022/05/08 09:02:18;;;;;;;10.48;10.18;;;21.00;99.90;;;;;;5080922;28;20268;-79
2022/05/08 09:04:47;;;;;;;10.60;10.30;;;21.30;99.90;;;;;;5080170;28;20245;-78
2022/05/08 09:07:42;;;;;;;10.50;10.20;;;21.40;99.90;;;;;;5080787;28;20293;-78
2022/05/08 09:10:22;;;;;;;10.80;10.50;;;21.60;99.90;;;;;;5079915;28;20302;-78
2022/05/08 09:13:09;;;;;;;10.60;10.30;;;21.80;99.90;;;;;;5078818;28;20260;-78
2022/05/08 09:15:38;;;;;;;10.68;10.38;;;22.00;99.90;;;;;;5078278;28;20288;-78
2022/05/08 09:18:07;;;;;;;10.82;10.52;;;22.10;99.90;;;;;;5077131;28;20234;-77
2022/05/08 09:20:39;;;;;;;10.60;10.30;;;21.80;99.90;;;;;;5078312;28;20329;-78
2022/05/08 09:23:15;;;;;;;10.30;10.00;;;21.60;99.90;;;;;;5079978;28;20248;-79
2022/05/08 09:26:03;;;;;;;10.90;10.60;;;22.00;99.90;;;;;;5079978;28;20226;-78
2022/05/08 09:28:33;;;;;;;10.20;9.90;;;22.10;99.90;;;;;;5079934;28;20234;-79
2022/05/08 09:31:09;;;;;;;10.38;10.07;;;22.10;99.90;;;;;;5083273;28;20230;-79
2022/05/08 09:33:40;;;;;;;10.18;9.88;;;22.30;99.90;;;;;;5084379;28;20226;-80
2022/05/08 09:36:10;;;;;;;10.30;10.00;;;22.20;99.90;;;;;;5084300;28;20222;-80
2022/05/08 09:38:50;;;;;;;10.30;10.00;;;22.30;99.90;;;;;;5083915;28;20237;-80
2022/05/08 09:41:24;;;;;;;10.30;10.00;;;22.30;99.90;;;;;;5084057;28;20230;-80
2022/05/08 09:43:54;;;;;;;10.40;10.10;;;22.40;99.90;;;;;;5085547;28;20233;-79
2022/05/08 09:46:25;;;;;;;10.18;9.88;;;22.40;99.90;;;;;;5083928;28;20237;-78
2022/05/08 09:48:55;;;;;;;10.18;9.88;;;22.50;99.90;;;;;;5083573;28;20300;-78
2022/05/08 09:51:26;;;;;;;10.30;10.00;;;22.60;99.90;;;;;;5082731;28;20233;-78
2022/05/08 09:53:54;;;;;;;10.30;10.00;;;22.90;99.90;;;;;;5082582;28;20296;-79
2022/05/08 09:56:28;;;;;;;10.57;10.27;;;23.10;99.90;;;;;;5082266;28;20288;-78
2022/05/08 09:58:55;;;;;;;10.30;10.00;;;22.90;99.90;;;;;;5081650;28;20226;-77
2022/05/08 10:01:24;;;;;;;10.48;10.18;;;22.70;99.90;;;;;;5094806;28;20283;-78
2022/05/08 10:03:55;;;;;;;10.70;10.40;;;22.50;99.90;;;;;;5080555;28;20226;-76
2022/05/08 10:06:24;;;;;;;10.43;10.13;;;22.50;99.90;;;;;;5080064;28;20230;-76
2022/05/08 10:08:52;;;;;;;10.25;9.95;;;22.70;99.90;;;;;;5092669;28;20340;-80
2022/05/08 10:14:08;;;;;;;10.50;10.20;;;23.00;99.90;;;;;;5081900;28;20230;-77
2022/05/08 10:17:03;;;;;;;10.60;10.30;;;23.20;99.90;;;;;;5083040;28;20353;-79
2022/05/08 10:20:00;;;;;;;10.55;10.25;;;23.30;99.90;;;;;;5088263;28;20297;-79
2022/05/08 10:22:54;;;;;;;10.52;10.23;;;23.50;99.90;;;;;;5093120;28;20264;-80
2022/05/08 10:25:23;;;;;;;10.50;10.20;;;23.70;99.90;;;;;;5086189;28;20237;-79
2022/05/08 10:28:11;;;;;;;10.52;10.23;;;23.90;99.90;;;;;;5085025;28;20291;-79
2022/05/08 10:30:40;;;;;;;10.32;10.02;;;24.30;99.90;;;;;;5085556;28;20329;-79
2022/05/08 10:33:09;;;;;;;10.68;10.38;;;24.70;99.90;;;;;;5085206;28;20237;-79
2022/05/08 10:35:39;;;;;;;10.73;10.43;;;24.90;99.90;;;;;;5085046;28;20230;-79
2022/05/08 10:38:28;;;;;;;10.43;10.13;;;25.00;99.90;;;;;;5084611;28;20264;-79
2022/05/08 10:40:56;;;;;;;10.50;10.20;;;24.80;99.90;;;;;;5088120;28;20265;-78
2022/05/08 10:43:35;;;;;;;10.30;10.00;;;24.80;99.90;;;;;;5086125;28;20222;-80
2022/05/08 10:46:30;;;;;;;10.35;10.05;;;24.80;99.90;;;;;;5083984;28;20253;-79
2022/05/08 10:48:59;;;;;;;10.40;10.10;;;25.00;99.90;;;;;;5083666;28;20400;-80
2022/05/08 10:51:28;;;;;;;10.30;10.00;;;25.30;99.90;;;;;;5084657;28;20240;-79
2022/05/08 10:54:15;;;;;;;10.55;10.25;;;25.20;99.90;;;;;;5083509;28;20256;-80
2022/05/08 10:56:53;;;;;;;10.52;10.23;;;25.30;99.90;;;;;;5083683;28;20321;-80
2022/05/08 11:00:03;;;;;;;10.57;10.27;;;25.40;99.90;;;;;;5091375;28;20253;-80
2022/05/08 11:02:41;;;;;;;10.60;10.30;;;25.40;99.90;;;;;;5091346;28;20290;-80
2022/05/08 11:05:15;;;;;;;10.70;10.40;;;25.20;99.90;;;;;;5093882;28;20233;-82
2022/05/08 11:07:51;;;;;;;10.85;10.55;;;25.30;99.90;;;;;;5118016;22;20232;-86
2022/05/08 11:10:23;;;;;;;10.55;10.25;;;24.80;99.90;;;;;;5081109;28;20241;-87
2022/05/08 11:13:02;;;;;;;10.60;10.30;;;24.10;99.90;;;;;;5080635;28;20222;-86
2022/05/08 11:15:41;;;;;;;10.70;10.40;;;24.00;99.90;;;;;;5081065;28;20260;-87
2022/05/08 11:18:15;;;;;;;10.80;10.50;;;24.00;99.90;;;;;;5081810;28;20277;-85
2022/05/08 11:20:48;;;;;;;10.70;10.40;;;24.10;99.90;;;;;;5081333;28;20240;-86
2022/05/08 11:23:27;;;;;;;10.68;10.38;;;24.20;99.90;;;;;;5080928;28;20234;-85
2022/05/08 11:26:05;;;;;;;10.45;10.15;;;24.30;99.90;;;;;;5083939;28;20221;-87
2022/05/08 11:28:35;;;;;;;10.40;10.10;;;24.70;99.90;;;;;;5083672;28;20237;-84
2022/05/08 11:38:05;;;;;;;10.15;9.85;;;25.90;99.90;;;;;;5080892;28;20222;-84
2022/05/08 11:40:33;;;;;;;10.30;10.00;;;26.10;99.90;;;;;;5081625;28;20214;-83
2022/05/08 11:43:01;;;;;;;10.68;10.38;;;25.90;99.90;;;;;;5081140;28;20229;-82
2022/05/08 11:45:30;;;;;;;10.50;10.20;;;26.00;99.90;;;;;;5081542;28;20238;-83
2022/05/08 11:47:57;;;;;;;10.75;10.45;;;26.00;99.90;;;;;;5081162;28;20231;-83
2022/05/08 11:50:27;;;;;;;10.50;10.20;;;25.70;99.90;;;;;;5081238;28;21099;-83
2022/05/08 11:53:01;;;;;;;10.70;10.40;;;25.40;99.90;;;;;;5082354;28;20343;-82
2022/05/08 11:55:30;;;;;;;10.50;10.20;;;25.00;99.90;;;;;;5082822;28;20260;-82
2022/05/08 11:57:59;;;;;;;10.77;10.48;;;25.40;99.90;;;;;;5079539;28;20226;-82
2022/05/08 12:00:32;;;;;;;10.73;10.43;;;25.60;99.90;;;;;;5080814;28;20233;-83
2022/05/08 12:03:02;;;;;;;10.70;10.40;;;25.50;99.90;;;;;;5080621;28;20276;-83
2022/05/08 12:05:31;;;;;;;10.60;10.30;;;25.40;99.90;;;;;;5081477;28;20222;-83
2022/05/08 12:07:59;;;;;;;10.40;10.10;;;25.40;99.90;;;;;;5082986;28;20260;-83
2022/05/08 12:10:38;;;;;;;10.32;10.02;;;25.20;99.90;;;;;;5082089;28;20237;-84
2022/05/08 12:13:06;;;;;;;10.30;10.00;;;25.30;99.90;;;;;;5082259;28;20249;-85
2022/05/08 12:15:35;;;;;;;10.32;10.02;;;25.50;99.90;;;;;;5081281;28;20241;-83
2022/05/08 12:18:06;;;;;;;10.50;10.20;;;25.80;99.90;;;;;;5081333;28;20237;-85
2022/05/08 12:20:39;;;;;;;10.43;10.13;;;25.80;99.90;;;;;;5080164;28;20473;-83
2022/05/08 12:23:08;;;;;;;10.40;10.10;;;25.70;99.90;;;;;;5079789;28;20234;-84
2022/05/08 12:25:45;;;;;;;10.20;9.90;;;25.50;99.90;;;;;;5080723;28;20230;-83
2022/05/08 12:28:13;;;;;;;10.50;10.20;;;25.30;99.90;;;;;;5079776;28;20236;-84
2022/05/08 12:30:41;;;;;;;10.10;9.80;;;25.00;99.90;;;;;;5079442;28;20256;-84
2022/05/08 12:33:09;;;;;;;10.38;10.07;;;24.80;99.90;;;;;;5079516;28;20234;-83
2022/05/08 12:35:40;;;;;;;10.60;10.30;;;24.70;99.90;;;;;;5079753;28;20318;-84
2022/05/08 12:38:10;;;;;;;10.50;10.20;;;24.50;99.90;;;;;;5079951;28;20233;-85
2022/05/08 12:40:39;;;;;;;10.13;9.82;;;24.50;99.90;;;;;;5080295;28;20221;-84
2022/05/08 12:43:09;;;;;;;10.30;10.00;;;24.70;99.90;;;;;;5080149;28;20246;-84
2022/05/08 12:45:40;;;;;;;10.40;10.10;;;24.80;99.90;;;;;;5079873;28;20230;-83
2022/05/08 12:48:11;;;;;;;10.15;9.85;;;25.20;99.90;;;;;;5080592;28;20229;-83
2022/05/08 12:50:40;;;;;;;10.10;9.80;;;25.70;99.90;;;;;;5080601;28;20233;-84
2022/05/08 12:53:08;;;;;;;10.13;9.82;;;26.00;99.90;;;;;;5080364;28;20253;-83
2022/05/08 12:55:35;;;;;;;10.23;9.93;;;26.30;99.90;;;;;;5079797;28;20226;-82
2022/05/08 13:00:49;;;;;;;10.20;9.90;;;27.10;99.90;;;;;;5080951;28;20230;-83
2022/05/08 13:03:16;;;;;;;10.32;10.02;;;27.70;99.90;;;;;;5079828;28;20238;-83
2022/05/08 13:05:46;;;;;;;10.20;9.90;;;28.00;99.90;;;;;;5078600;28;20296;-83
2022/05/08 13:08:13;;;;;;;10.30;10.00;;;28.30;99.90;;;;;;5080502;28;20245;-83
2022/05/08 13:10:41;;;;;;;10.40;10.10;;;28.20;99.90;;;;;;5083800;28;20234;-83
2022/05/08 13:13:10;;;;;;;10.48;10.18;;;28.10;99.90;;;;;;5079869;28;20237;-83
2022/05/08 13:15:38;;;;;;;10.52;10.23;;;28.10;99.90;;;;;;5078941;28;20234;-83
2022/05/08 13:18:07;;;;;;;10.50;10.20;;;27.60;99.90;;;;;;5080415;28;20238;-82
2022/05/08 13:20:35;;;;;;;10.40;10.10;;;27.10;99.90;;;;;;5083141;28;20226;-83